Time,TemperatureF,DewpointF,PressureIn,WindDirection,WindDirectionDegrees,WindSpeedMPH,WindSpeedGustMPH,Humidity,HourlyPrecipIn,Conditions,Clouds,dailyrainin,SoftwareType,DateUTC
2013-10-05 06:50:00,67.8,62.8,30.22,NW,319,2.0,12.0,84,0.14,,---,0.14,VWS V14.01,2013-10-05 11:50:00,
2013-10-05 07:00:00,66.8,62.2,30.25,North,5,10.0,19.0,85,0.51,,---,0.65,VWS V14.01,2013-10-05 12:00:00,
2013-10-05 07:10:00,65.8,61.8,30.25,NE,43,10.0,16.0,87,0.81,,---,0.95,VWS V14.01,2013-10-05 12:10:00,
2013-10-05 07:12:00,65.6,61.6,30.25,North,5,4.0,10.0,87,0.89,,---,1.03,VWS V14.01,2013-10-05 12:12:00,
2013-10-05 07:17:00,65.5,61.5,30.24,NE,38,4.0,13.0,87,1.01,,---,1.15,VWS V14.01,2013-10-05 12:17:00,
2013-10-05 07:20:00,65.3,61.7,30.24,ENE,74,5.0,13.0,88,1.06,,---,1.20,VWS V14.01,2013-10-05 12:20:00,
2013-10-05 07:22:00,65.3,61.7,30.24,ENE,67,5.0,9.0,88,1.08,,---,1.22,VWS V14.01,2013-10-05 12:22:00,
2013-10-05 07:27:00,65.2,61.6,30.24,ENE,67,3.0,9.0,88,1.19,,---,1.33,VWS V14.01,2013-10-05 12:27:00,
2013-10-05 07:30:00,65.2,61.9,30.26,ENE,68,6.0,9.0,89,1.23,,---,1.37,VWS V14.01,2013-10-05 12:30:00,
2013-10-05 07:32:00,65.2,61.9,30.26,ENE,74,4.0,7.0,89,1.26,,---,1.40,VWS V14.01,2013-10-05 12:32:00,
2013-10-05 07:37:00,65.0,61.7,30.26,ENE,70,5.0,7.0,89,1.36,,---,1.50,VWS V14.01,2013-10-05 12:37:00,
2013-10-05 07:40:00,65.0,61.7,30.26,East,101,6.0,7.0,89,1.38,,---,1.52,VWS V14.01,2013-10-05 12:40:00,
2013-10-05 07:42:00,65.0,61.7,30.26,East,93,2.0,7.0,89,1.40,,---,1.54,VWS V14.01,2013-10-05 12:42:00,
2013-10-05 07:47:00,64.8,61.8,30.28,SE,137,2.0,7.0,90,1.45,,---,1.59,VWS V14.01,2013-10-05 12:47:00,
2013-10-05 07:50:00,64.8,61.8,30.28,SE,137,3.0,7.0,90,1.45,,---,1.59,VWS V14.01,2013-10-05 12:50:00,
2013-10-05 07:52:00,64.8,61.8,30.28,SE,126,1.0,4.0,90,1.46,,---,1.60,VWS V14.01,2013-10-05 12:52:00,
2013-10-05 07:57:00,64.8,61.8,30.28,ESE,109,1.0,9.0,90,1.48,,---,1.62,VWS V14.01,2013-10-05 12:57:00,
2013-10-05 08:00:00,64.8,61.8,30.28,ENE,76,6.0,9.0,90,1.49,,---,1.63,VWS V14.01,2013-10-05 13:00:00,
2013-10-05 08:02:00,64.8,61.8,30.28,ENE,74,6.0,8.0,90,0.98,,---,1.63,VWS V14.01,2013-10-05 13:02:00,
2013-10-05 08:07:00,64.8,61.8,30.28,East,101,0.0,8.0,90,0.98,,---,1.63,VWS V14.01,2013-10-05 13:07:00,
2013-10-05 08:10:00,64.7,61.7,30.28,East,101,1.0,8.0,90,0.99,,---,1.64,VWS V14.01,2013-10-05 13:10:00,
2013-10-05 08:12:00,64.7,61.7,30.28,East,101,0.0,3.0,90,0.69,,---,1.64,VWS V14.01,2013-10-05 13:12:00,
2013-10-05 08:17:00,64.7,61.7,30.29,East,101,0.0,3.0,90,0.70,,---,1.65,VWS V14.01,2013-10-05 13:17:00,
2013-10-05 08:20:00,64.7,62.0,30.29,East,101,0.0,3.0,91,0.71,,---,1.66,VWS V14.01,2013-10-05 13:20:00,
2013-10-05 08:22:00,64.7,62.0,30.29,East,101,0.0,0.0,91,0.47,,---,1.67,VWS V14.01,2013-10-05 13:22:00,
2013-10-05 08:27:00,64.7,62.0,30.29,East,101,1.0,2.0,91,0.47,,---,1.67,VWS V14.01,2013-10-05 13:27:00,
2013-10-05 08:30:00,64.5,61.8,30.28,East,101,1.0,2.0,91,0.47,,---,1.67,VWS V14.01,2013-10-05 13:30:00,
2013-10-05 08:32:00,64.5,61.8,30.28,East,101,1.0,3.0,91,0.31,,---,1.68,VWS V14.01,2013-10-05 13:32:00,
2013-10-05 08:37:00,64.5,61.8,30.28,East,101,0.0,3.0,91,0.31,,---,1.68,VWS V14.01,2013-10-05 13:37:00,
2013-10-05 08:40:00,64.5,61.8,30.28,East,101,0.0,3.0,91,0.31,,---,1.68,VWS V14.01,2013-10-05 13:40:00,
2013-10-05 08:42:00,64.5,61.8,30.28,East,101,0.0,0.0,91,0.16,,---,1.68,VWS V14.01,2013-10-05 13:42:00,
2013-10-05 08:47:00,64.5,61.8,30.30,East,101,0.0,0.0,91,0.19,,---,1.71,VWS V14.01,2013-10-05 13:47:00,
2013-10-05 08:50:00,64.5,61.8,30.30,East,101,4.0,4.0,91,0.21,,---,1.73,VWS V14.01,2013-10-05 13:50:00,
2013-10-05 08:52:00,64.5,61.8,30.30,SSW,203,4.0,4.0,91,0.18,,---,1.77,VWS V14.01,2013-10-05 13:52:00,
2013-10-05 09:00:00,64.8,61.8,30.28,ENE,76,6.0,9.0,90,1.49,,---,1.63,VWS V14.01,2013-10-05 14:00:00,
2013-10-05 09:10:00,64.7,61.7,30.28,East,101,1.0,8.0,90,0.99,,---,1.64,VWS V14.01,2013-10-05 14:10:00,
2013-10-05 09:20:00,64.7,62.0,30.29,East,101,0.0,3.0,91,0.71,,---,1.66,VWS V14.01,2013-10-05 14:20:00,
2013-10-05 09:30:00,64.5,61.8,30.28,East,101,1.0,2.0,91,0.47,,---,1.67,VWS V14.01,2013-10-05 14:30:00,
2013-10-05 09:40:00,64.5,61.8,30.28,East,101,0.0,3.0,91,0.31,,---,1.68,VWS V14.01,2013-10-05 14:40:00,
2013-10-05 09:50:00,64.5,61.8,30.30,East,101,4.0,4.0,91,0.21,,---,1.73,VWS V14.01,2013-10-05 14:50:00,